sensor_id;sensor_type;location;lat;lon;timestamp;P1;durP1;ratioP1;P2;durP2;ratioP2
13571;SDS011;6857;53.484;10.216;2023-05-10T00:01:27;6.23;;;3.30;;
13571;SDS011;6857;53.484;10.216;2023-05-10T00:03:53;4.80;;;3.30;;
13571;SDS011;6857;53.484;10.216;2023-05-10T00:06:18;5.63;;;3.13;;
13571;SDS011;6857;53.484;10.216;2023-05-10T00:08:45;5.13;;;3.03;;
13571;SDS011;6857;53.484;10.216;2023-05-10T00:11:10;6.20;;;3.70;;
13571;SDS011;6857;53.484;10.216;2023-05-10T00:13:36;6.07;;;3.43;;
13571;SDS011;6857;53.484;10.216;2023-05-10T00:16:01;4.43;;;3.07;;
13571;SDS011;6857;53.484;10.216;2023-05-10T00:18:27;4.20;;;3.13;;
13571;SDS011;6857;53.484;10.216;2023-05-10T00:20:52;3.90;;;3.47;;
13571;SDS011;6857;53.484;10.216;2023-05-10T00:23:18;3.83;;;3.33;;
13571;SDS011;6857;53.484;10.216;2023-05-10T00:25:43;6.13;;;3.40;;
13571;SDS011;6857;53.484;10.216;2023-05-10T00:28:09;5.23;;;3.43;;
13571;SDS011;6857;53.484;10.216;2023-05-10T00:30:35;8.57;;;3.90;;
13571;SDS011;6857;53.484;10.216;2023-05-10T00:33:00;5.57;;;3.47;;
13571;SDS011;6857;53.484;10.216;2023-05-10T00:35:26;6.47;;;3.50;;
13571;SDS011;6857;53.484;10.216;2023-05-10T00:37:51;5.53;;;3.50;;
13571;SDS011;6857;53.484;10.216;2023-05-10T00:40:17;5.97;;;3.63;;
13571;SDS011;6857;53.484;10.216;2023-05-10T00:42:42;3.90;;;3.17;;
13571;SDS011;6857;53.484;10.216;2023-05-10T00:45:08;5.13;;;3.53;;
13571;SDS011;6857;53.484;10.216;2023-05-10T00:47:34;3.50;;;3.20;;
13571;SDS011;6857;53.484;10.216;2023-05-10T00:49:59;4.20;;;3.00;;
13571;SDS011;6857;53.484;10.216;2023-05-10T00:52:26;4.97;;;3.10;;
13571;SDS011;6857;53.484;10.216;2023-05-10T00:54:53;5.40;;;3.27;;
13571;SDS011;6857;53.484;10.216;2023-05-10T00:57:19;5.37;;;3.47;;
13571;SDS011;6857;53.484;10.216;2023-05-10T00:59:45;4.27;;;3.30;;
13571;SDS011;6857;53.484;10.216;2023-05-10T01:02:11;5.47;;;3.70;;
13571;SDS011;6857;53.484;10.216;2023-05-10T01:04:38;6.10;;;3.60;;
13571;SDS011;6857;53.484;10.216;2023-05-10T01:07:04;4.57;;;3.30;;
13571;SDS011;6857;53.484;10.216;2023-05-10T01:09:30;5.03;;;3.30;;
13571;SDS011;6857;53.484;10.216;2023-05-10T01:11:56;8.63;;;3.47;;
13571;SDS011;6857;53.484;10.216;2023-05-10T01:14:23;5.13;;;3.30;;
13571;SDS011;6857;53.484;10.216;2023-05-10T01:16:50;4.60;;;3.30;;
13571;SDS011;6857;53.484;10.216;2023-05-10T01:19:25;6.13;;;3.10;;
13571;SDS011;6857;53.484;10.216;2023-05-10T01:24:40;5.33;;;3.60;;
13571;SDS011;6857;53.484;10.216;2023-05-10T01:36:01;4.80;;;3.40;;
13571;SDS011;6857;53.484;10.216;2023-05-10T01:38:33;4.03;;;3.47;;
13571;SDS011;6857;53.484;10.216;2023-05-10T01:41:19;3.97;;;3.40;;
13571;SDS011;6857;53.484;10.216;2023-05-10T01:44:02;7.23;;;3.57;;
13571;SDS011;6857;53.484;10.216;2023-05-10T01:46:45;4.70;;;3.27;;
13571;SDS011;6857;53.484;10.216;2023-05-10T01:49:21;7.57;;;3.60;;
13571;SDS011;6857;53.484;10.216;2023-05-10T01:51:51;6.80;;;3.83;;
13571;SDS011;6857;53.484;10.216;2023-05-10T01:54:20;4.83;;;3.37;;
13571;SDS011;6857;53.484;10.216;2023-05-10T01:56:52;6.00;;;3.47;;
13571;SDS011;6857;53.484;10.216;2023-05-10T01:59:25;4.57;;;3.63;;
13571;SDS011;6857;53.484;10.216;2023-05-10T02:01:56;5.23;;;3.43;;
13571;SDS011;6857;53.484;10.216;2023-05-10T02:04:24;4.90;;;3.97;;
13571;SDS011;6857;53.484;10.216;2023-05-10T02:06:51;7.77;;;4.07;;
13571;SDS011;6857;53.484;10.216;2023-05-10T02:09:19;4.70;;;3.77;;
13571;SDS011;6857;53.484;10.216;2023-05-10T02:11:46;6.27;;;3.37;;
13571;SDS011;6857;53.484;10.216;2023-05-10T02:14:13;5.40;;;3.87;;
13571;SDS011;6857;53.484;10.216;2023-05-10T02:16:40;4.27;;;3.57;;
13571;SDS011;6857;53.484;10.216;2023-05-10T02:19:07;5.87;;;3.70;;
13571;SDS011;6857;53.484;10.216;2023-05-10T02:21:34;4.80;;;3.33;;
13571;SDS011;6857;53.484;10.216;2023-05-10T02:24:01;3.90;;;3.33;;
13571;SDS011;6857;53.484;10.216;2023-05-10T02:26:28;5.50;;;3.70;;
13571;SDS011;6857;53.484;10.216;2023-05-10T02:28:56;5.33;;;3.80;;
13571;SDS011;6857;53.484;10.216;2023-05-10T02:31:23;5.30;;;3.50;;
13571;SDS011;6857;53.484;10.216;2023-05-10T02:33:49;5.80;;;3.40;;
13571;SDS011;6857;53.484;10.216;2023-05-10T02:36:16;4.20;;;3.60;;
13571;SDS011;6857;53.484;10.216;2023-05-10T02:38:42;5.97;;;3.67;;
13571;SDS011;6857;53.484;10.216;2023-05-10T02:41:09;4.67;;;3.40;;
13571;SDS011;6857;53.484;10.216;2023-05-10T02:43:36;6.17;;;3.67;;
13571;SDS011;6857;53.484;10.216;2023-05-10T02:46:04;6.63;;;3.30;;
13571;SDS011;6857;53.484;10.216;2023-05-10T02:48:30;6.00;;;3.57;;
13571;SDS011;6857;53.484;10.216;2023-05-10T02:50:56;9.27;;;3.70;;
13571;SDS011;6857;53.484;10.216;2023-05-10T02:53:31;7.50;;;3.50;;
13571;SDS011;6857;53.484;10.216;2023-05-10T02:56:00;3.83;;;3.37;;
13571;SDS011;6857;53.484;10.216;2023-05-10T02:58:29;7.83;;;3.80;;
13571;SDS011;6857;53.484;10.216;2023-05-10T03:00:54;4.30;;;3.40;;
13571;SDS011;6857;53.484;10.216;2023-05-10T03:03:20;4.60;;;3.50;;
13571;SDS011;6857;53.484;10.216;2023-05-10T03:05:45;4.90;;;3.47;;
13571;SDS011;6857;53.484;10.216;2023-05-10T03:08:11;5.97;;;3.87;;
13571;SDS011;6857;53.484;10.216;2023-05-10T03:10:39;5.00;;;3.73;;
13571;SDS011;6857;53.484;10.216;2023-05-10T03:13:14;6.33;;;3.10;;
13571;SDS011;6857;53.484;10.216;2023-05-10T03:18:41;7.53;;;3.23;;
13571;SDS011;6857;53.484;10.216;2023-05-10T03:21:10;5.90;;;3.77;;
13571;SDS011;6857;53.484;10.216;2023-05-10T03:23:45;4.67;;;3.47;;
13571;SDS011;6857;53.484;10.216;2023-05-10T03:26:23;4.63;;;4.13;;
13571;SDS011;6857;53.484;10.216;2023-05-10T03:28:51;6.30;;;4.13;;
13571;SDS011;6857;53.484;10.216;2023-05-10T03:31:18;4.40;;;3.93;;
13571;SDS011;6857;53.484;10.216;2023-05-10T03:33:50;4.57;;;3.47;;
13571;SDS011;6857;53.484;10.216;2023-05-10T03:36:17;4.50;;;3.57;;
13571;SDS011;6857;53.484;10.216;2023-05-10T03:38:43;5.33;;;3.80;;
13571;SDS011;6857;53.484;10.216;2023-05-10T03:41:09;6.03;;;3.73;;
13571;SDS011;6857;53.484;10.216;2023-05-10T03:43:36;7.37;;;3.83;;
13571;SDS011;6857;53.484;10.216;2023-05-10T03:46:04;4.23;;;3.83;;
13571;SDS011;6857;53.484;10.216;2023-05-10T03:48:32;4.80;;;3.70;;
13571;SDS011;6857;53.484;10.216;2023-05-10T03:50:58;8.03;;;3.57;;
13571;SDS011;6857;53.484;10.216;2023-05-10T03:53:24;5.07;;;3.60;;
13571;SDS011;6857;53.484;10.216;2023-05-10T03:55:50;6.40;;;3.63;;
13571;SDS011;6857;53.484;10.216;2023-05-10T03:58:15;5.53;;;3.67;;
13571;SDS011;6857;53.484;10.216;2023-05-10T04:00:41;4.30;;;3.47;;
13571;SDS011;6857;53.484;10.216;2023-05-10T04:03:09;9.13;;;3.83;;
13571;SDS011;6857;53.484;10.216;2023-05-10T04:05:35;7.40;;;4.50;;
13571;SDS011;6857;53.484;10.216;2023-05-10T04:08:01;4.60;;;4.07;;
13571;SDS011;6857;53.484;10.216;2023-05-10T04:10:26;4.40;;;4.00;;
13571;SDS011;6857;53.484;10.216;2023-05-10T04:12:52;7.07;;;3.90;;
13571;SDS011;6857;53.484;10.216;2023-05-10T04:15:18;5.67;;;3.70;;
13571;SDS011;6857;53.484;10.216;2023-05-10T04:17:43;5.63;;;4.00;;
13571;SDS011;6857;53.484;10.216;2023-05-10T04:20:09;4.97;;;3.63;;
13571;SDS011;6857;53.484;10.216;2023-05-10T04:22:35;5.23;;;4.07;;
13571;SDS011;6857;53.484;10.216;2023-05-10T04:25:00;4.50;;;3.93;;
13571;SDS011;6857;53.484;10.216;2023-05-10T04:27:26;5.13;;;4.00;;
13571;SDS011;6857;53.484;10.216;2023-05-10T04:29:52;6.60;;;3.80;;
13571;SDS011;6857;53.484;10.216;2023-05-10T04:32:17;6.70;;;4.13;;
13571;SDS011;6857;53.484;10.216;2023-05-10T04:34:45;4.83;;;4.03;;
13571;SDS011;6857;53.484;10.216;2023-05-10T04:37:10;5.07;;;4.23;;
13571;SDS011;6857;53.484;10.216;2023-05-10T04:39:36;5.57;;;4.00;;
13571;SDS011;6857;53.484;10.216;2023-05-10T04:42:05;4.47;;;4.07;;
13571;SDS011;6857;53.484;10.216;2023-05-10T04:44:30;6.23;;;4.00;;
13571;SDS011;6857;53.484;10.216;2023-05-10T04:46:59;6.10;;;4.27;;
13571;SDS011;6857;53.484;10.216;2023-05-10T04:49:27;10.27;;;4.10;;
13571;SDS011;6857;53.484;10.216;2023-05-10T04:51:52;7.40;;;4.40;;
13571;SDS011;6857;53.484;10.216;2023-05-10T04:54:18;4.83;;;3.80;;
13571;SDS011;6857;53.484;10.216;2023-05-10T04:56:44;5.50;;;3.93;;
13571;SDS011;6857;53.484;10.216;2023-05-10T04:59:09;8.90;;;4.27;;
13571;SDS011;6857;53.484;10.216;2023-05-10T05:01:35;5.30;;;4.43;;
13571;SDS011;6857;53.484;10.216;2023-05-10T05:04:00;6.57;;;4.00;;
13571;SDS011;6857;53.484;10.216;2023-05-10T05:06:26;10.20;;;4.80;;
13571;SDS011;6857;53.484;10.216;2023-05-10T05:08:52;9.03;;;4.30;;
13571;SDS011;6857;53.484;10.216;2023-05-10T05:11:17;7.33;;;3.93;;
13571;SDS011;6857;53.484;10.216;2023-05-10T05:13:43;5.63;;;4.03;;
13571;SDS011;6857;53.484;10.216;2023-05-10T05:16:08;7.67;;;5.33;;
13571;SDS011;6857;53.484;10.216;2023-05-10T05:18:36;8.00;;;4.40;;
13571;SDS011;6857;53.484;10.216;2023-05-10T05:21:03;5.40;;;3.90;;
13571;SDS011;6857;53.484;10.216;2023-05-10T05:23:34;6.60;;;4.60;;
13571;SDS011;6857;53.484;10.216;2023-05-10T05:26:01;7.80;;;4.00;;
13571;SDS011;6857;53.484;10.216;2023-05-10T05:28:29;7.40;;;4.17;;
13571;SDS011;6857;53.484;10.216;2023-05-10T05:30:57;6.00;;;4.00;;
13571;SDS011;6857;53.484;10.216;2023-05-10T05:33:25;7.47;;;4.23;;
13571;SDS011;6857;53.484;10.216;2023-05-10T05:35:51;7.23;;;4.43;;
13571;SDS011;6857;53.484;10.216;2023-05-10T05:38:18;7.30;;;4.77;;
13571;SDS011;6857;53.484;10.216;2023-05-10T05:40:45;6.70;;;4.33;;
13571;SDS011;6857;53.484;10.216;2023-05-10T05:43:12;8.90;;;4.07;;
13571;SDS011;6857;53.484;10.216;2023-05-10T05:45:38;8.20;;;4.20;;
13571;SDS011;6857;53.484;10.216;2023-05-10T05:48:05;8.07;;;4.30;;
13571;SDS011;6857;53.484;10.216;2023-05-10T05:50:32;5.40;;;4.33;;
13571;SDS011;6857;53.484;10.216;2023-05-10T05:52:59;7.33;;;4.70;;
13571;SDS011;6857;53.484;10.216;2023-05-10T05:55:27;7.90;;;4.20;;
13571;SDS011;6857;53.484;10.216;2023-05-10T05:57:56;7.30;;;4.30;;
13571;SDS011;6857;53.484;10.216;2023-05-10T06:00:23;13.13;;;4.57;;
13571;SDS011;6857;53.484;10.216;2023-05-10T06:02:50;6.80;;;4.03;;
13571;SDS011;6857;53.484;10.216;2023-05-10T06:05:17;6.73;;;4.13;;
13571;SDS011;6857;53.484;10.216;2023-05-10T06:07:45;6.97;;;4.93;;
13571;SDS011;6857;53.484;10.216;2023-05-10T06:10:12;4.53;;;4.07;;
13571;SDS011;6857;53.484;10.216;2023-05-10T06:12:39;4.70;;;3.77;;
13571;SDS011;6857;53.484;10.216;2023-05-10T06:15:05;5.80;;;4.10;;
13571;SDS011;6857;53.484;10.216;2023-05-10T06:17:31;6.13;;;4.03;;
13571;SDS011;6857;53.484;10.216;2023-05-10T06:19:57;4.87;;;4.27;;
13571;SDS011;6857;53.484;10.216;2023-05-10T06:22:22;10.80;;;4.33;;
13571;SDS011;6857;53.484;10.216;2023-05-10T06:24:48;7.83;;;3.90;;
13571;SDS011;6857;53.484;10.216;2023-05-10T06:27:14;5.27;;;4.20;;
13571;SDS011;6857;53.484;10.216;2023-05-10T06:29:39;4.83;;;4.07;;
13571;SDS011;6857;53.484;10.216;2023-05-10T06:32:05;7.20;;;4.27;;
13571;SDS011;6857;53.484;10.216;2023-05-10T06:34:31;5.17;;;4.27;;
13571;SDS011;6857;53.484;10.216;2023-05-10T06:36:57;6.30;;;4.20;;
13571;SDS011;6857;53.484;10.216;2023-05-10T06:39:22;4.67;;;4.17;;
13571;SDS011;6857;53.484;10.216;2023-05-10T06:41:48;6.30;;;3.77;;
13571;SDS011;6857;53.484;10.216;2023-05-10T06:44:13;8.20;;;4.67;;
13571;SDS011;6857;53.484;10.216;2023-05-10T06:46:39;4.63;;;4.23;;
13571;SDS011;6857;53.484;10.216;2023-05-10T06:49:06;5.50;;;4.87;;
13571;SDS011;6857;53.484;10.216;2023-05-10T06:51:31;7.10;;;4.43;;
13571;SDS011;6857;53.484;10.216;2023-05-10T06:53:57;6.83;;;4.27;;
13571;SDS011;6857;53.484;10.216;2023-05-10T06:56:23;5.13;;;4.63;;
13571;SDS011;6857;53.484;10.216;2023-05-10T06:58:48;8.13;;;4.53;;
13571;SDS011;6857;53.484;10.216;2023-05-10T07:01:14;5.47;;;4.33;;
13571;SDS011;6857;53.484;10.216;2023-05-10T07:03:40;4.37;;;3.93;;
13571;SDS011;6857;53.484;10.216;2023-05-10T07:06:05;13.87;;;6.00;;
13571;SDS011;6857;53.484;10.216;2023-05-10T07:08:32;9.57;;;4.53;;
13571;SDS011;6857;53.484;10.216;2023-05-10T07:13:28;6.73;;;4.50;;
13571;SDS011;6857;53.484;10.216;2023-05-10T07:15:55;5.70;;;5.17;;
13571;SDS011;6857;53.484;10.216;2023-05-10T07:18:20;7.23;;;5.00;;
13571;SDS011;6857;53.484;10.216;2023-05-10T07:20:46;7.67;;;5.93;;
13571;SDS011;6857;53.484;10.216;2023-05-10T07:23:11;6.50;;;4.63;;
13571;SDS011;6857;53.484;10.216;2023-05-10T07:25:37;5.67;;;4.77;;
13571;SDS011;6857;53.484;10.216;2023-05-10T07:28:03;5.63;;;4.60;;
13571;SDS011;6857;53.484;10.216;2023-05-10T07:30:28;4.17;;;3.70;;
13571;SDS011;6857;53.484;10.216;2023-05-10T07:32:54;4.77;;;3.70;;
13571;SDS011;6857;53.484;10.216;2023-05-10T07:35:20;8.13;;;5.77;;
13571;SDS011;6857;53.484;10.216;2023-05-10T07:37:45;6.57;;;4.43;;
13571;SDS011;6857;53.484;10.216;2023-05-10T07:40:11;5.47;;;3.53;;
13571;SDS011;6857;53.484;10.216;2023-05-10T07:42:36;4.93;;;4.10;;
13571;SDS011;6857;53.484;10.216;2023-05-10T07:45:03;4.80;;;4.20;;
13571;SDS011;6857;53.484;10.216;2023-05-10T07:47:29;4.50;;;4.07;;
13571;SDS011;6857;53.484;10.216;2023-05-10T07:49:54;8.33;;;6.87;;
13571;SDS011;6857;53.484;10.216;2023-05-10T07:52:20;17.50;;;11.87;;
13571;SDS011;6857;53.484;10.216;2023-05-10T07:54:45;6.13;;;4.23;;
13571;SDS011;6857;53.484;10.216;2023-05-10T07:57:11;5.63;;;4.90;;
13571;SDS011;6857;53.484;10.216;2023-05-10T07:59:39;5.43;;;4.00;;
13571;SDS011;6857;53.484;10.216;2023-05-10T08:02:05;8.13;;;3.83;;
13571;SDS011;6857;53.484;10.216;2023-05-10T08:04:31;11.33;;;4.33;;
13571;SDS011;6857;53.484;10.216;2023-05-10T08:06:56;17.50;;;5.23;;
13571;SDS011;6857;53.484;10.216;2023-05-10T08:09:22;15.73;;;5.03;;
13571;SDS011;6857;53.484;10.216;2023-05-10T08:11:48;29.53;;;6.37;;
13571;SDS011;6857;53.484;10.216;2023-05-10T08:14:15;26.37;;;5.40;;
13571;SDS011;6857;53.484;10.216;2023-05-10T08:16:40;11.50;;;4.10;;
13571;SDS011;6857;53.484;10.216;2023-05-10T08:19:06;8.23;;;4.70;;
13571;SDS011;6857;53.484;10.216;2023-05-10T08:21:31;7.97;;;4.27;;
13571;SDS011;6857;53.484;10.216;2023-05-10T08:23:57;5.73;;;4.20;;
13571;SDS011;6857;53.484;10.216;2023-05-10T08:26:23;5.63;;;4.63;;
13571;SDS011;6857;53.484;10.216;2023-05-10T08:28:48;5.93;;;4.47;;
13571;SDS011;6857;53.484;10.216;2023-05-10T08:31:14;9.60;;;4.37;;
13571;SDS011;6857;53.484;10.216;2023-05-10T08:33:40;9.40;;;6.50;;
13571;SDS011;6857;53.484;10.216;2023-05-10T08:36:06;5.63;;;4.10;;
13571;SDS011;6857;53.484;10.216;2023-05-10T08:38:31;7.23;;;4.90;;
13571;SDS011;6857;53.484;10.216;2023-05-10T08:40:57;7.23;;;5.60;;
13571;SDS011;6857;53.484;10.216;2023-05-10T08:43:27;7.63;;;5.10;;
13571;SDS011;6857;53.484;10.216;2023-05-10T08:45:56;5.07;;;4.20;;
13571;SDS011;6857;53.484;10.216;2023-05-10T08:48:25;7.67;;;4.70;;
13571;SDS011;6857;53.484;10.216;2023-05-10T08:50:53;7.53;;;4.53;;
13571;SDS011;6857;53.484;10.216;2023-05-10T08:53:21;4.90;;;4.40;;
13571;SDS011;6857;53.484;10.216;2023-05-10T08:55:50;4.77;;;4.20;;
13571;SDS011;6857;53.484;10.216;2023-05-10T08:58:16;7.77;;;4.63;;
13571;SDS011;6857;53.484;10.216;2023-05-10T09:00:42;5.87;;;4.67;;
13571;SDS011;6857;53.484;10.216;2023-05-10T09:03:08;5.53;;;5.00;;
13571;SDS011;6857;53.484;10.216;2023-05-10T09:05:34;8.77;;;6.90;;
13571;SDS011;6857;53.484;10.216;2023-05-10T09:08:01;11.37;;;7.03;;
13571;SDS011;6857;53.484;10.216;2023-05-10T09:10:27;8.17;;;4.17;;
13571;SDS011;6857;53.484;10.216;2023-05-10T09:12:56;6.33;;;4.67;;
13571;SDS011;6857;53.484;10.216;2023-05-10T09:15:22;6.80;;;5.00;;
13571;SDS011;6857;53.484;10.216;2023-05-10T09:17:48;5.07;;;4.57;;
13571;SDS011;6857;53.484;10.216;2023-05-10T09:20:14;6.57;;;4.60;;
13571;SDS011;6857;53.484;10.216;2023-05-10T09:22:42;4.63;;;4.10;;
13571;SDS011;6857;53.484;10.216;2023-05-10T09:25:11;5.87;;;4.80;;
13571;SDS011;6857;53.484;10.216;2023-05-10T09:27:39;6.80;;;4.90;;
13571;SDS011;6857;53.484;10.216;2023-05-10T09:30:06;7.03;;;4.73;;
13571;SDS011;6857;53.484;10.216;2023-05-10T09:32:36;12.97;;;6.53;;
13571;SDS011;6857;53.484;10.216;2023-05-10T09:35:06;9.43;;;5.63;;
13571;SDS011;6857;53.484;10.216;2023-05-10T09:37:33;6.83;;;5.10;;
13571;SDS011;6857;53.484;10.216;2023-05-10T09:39:58;11.47;;;6.80;;
13571;SDS011;6857;53.484;10.216;2023-05-10T09:42:24;6.93;;;4.77;;
13571;SDS011;6857;53.484;10.216;2023-05-10T09:44:50;7.87;;;4.40;;
13571;SDS011;6857;53.484;10.216;2023-05-10T09:47:18;17.87;;;5.17;;
13571;SDS011;6857;53.484;10.216;2023-05-10T09:49:48;20.30;;;9.10;;
13571;SDS011;6857;53.484;10.216;2023-05-10T09:52:15;9.53;;;4.87;;
13571;SDS011;6857;53.484;10.216;2023-05-10T09:54:42;24.40;;;8.03;;
13571;SDS011;6857;53.484;10.216;2023-05-10T09:57:20;10.57;;;5.40;;
13571;SDS011;6857;53.484;10.216;2023-05-10T09:59:47;29.60;;;8.73;;
13571;SDS011;6857;53.484;10.216;2023-05-10T10:02:13;6.90;;;4.80;;
13571;SDS011;6857;53.484;10.216;2023-05-10T10:04:39;12.97;;;6.93;;
13571;SDS011;6857;53.484;10.216;2023-05-10T10:07:05;15.57;;;6.77;;
13571;SDS011;6857;53.484;10.216;2023-05-10T10:09:31;13.20;;;5.87;;
13571;SDS011;6857;53.484;10.216;2023-05-10T10:11:58;12.13;;;6.00;;
13571;SDS011;6857;53.484;10.216;2023-05-10T10:14:25;15.23;;;8.03;;
13571;SDS011;6857;53.484;10.216;2023-05-10T10:16:51;9.77;;;5.50;;
13571;SDS011;6857;53.484;10.216;2023-05-10T10:19:20;6.27;;;5.67;;
13571;SDS011;6857;53.484;10.216;2023-05-10T10:21:46;10.67;;;6.13;;
13571;SDS011;6857;53.484;10.216;2023-05-10T10:24:15;8.60;;;6.80;;
13571;SDS011;6857;53.484;10.216;2023-05-10T10:26:41;7.90;;;6.60;;
13571;SDS011;6857;53.484;10.216;2023-05-10T10:29:21;9.37;;;6.87;;
13571;SDS011;6857;53.484;10.216;2023-05-10T10:34:38;9.60;;;7.90;;
13571;SDS011;6857;53.484;10.216;2023-05-10T10:37:05;10.60;;;8.37;;
13571;SDS011;6857;53.484;10.216;2023-05-10T10:39:33;9.17;;;7.30;;
13571;SDS011;6857;53.484;10.216;2023-05-10T10:42:01;9.50;;;8.60;;
13571;SDS011;6857;53.484;10.216;2023-05-10T10:49:37;10.00;;;8.97;;
13571;SDS011;6857;53.484;10.216;2023-05-10T10:57:24;10.47;;;9.37;;
13571;SDS011;6857;53.484;10.216;2023-05-10T10:59:51;13.30;;;10.10;;
13571;SDS011;6857;53.484;10.216;2023-05-10T11:02:33;12.20;;;9.77;;
13571;SDS011;6857;53.484;10.216;2023-05-10T11:05:22;11.77;;;10.03;;
13571;SDS011;6857;53.484;10.216;2023-05-10T11:10:20;9.93;;;8.93;;
13571;SDS011;6857;53.484;10.216;2023-05-10T11:15:19;11.60;;;10.40;;
13571;SDS011;6857;53.484;10.216;2023-05-10T11:17:45;12.43;;;9.60;;
13571;SDS011;6857;53.484;10.216;2023-05-10T11:20:16;10.80;;;9.70;;
13571;SDS011;6857;53.484;10.216;2023-05-10T11:22:54;11.23;;;10.10;;
13571;SDS011;6857;53.484;10.216;2023-05-10T11:25:25;13.97;;;11.90;;
13571;SDS011;6857;53.484;10.216;2023-05-10T11:27:52;12.23;;;10.90;;
13571;SDS011;6857;53.484;10.216;2023-05-10T11:30:18;11.10;;;9.87;;
13571;SDS011;6857;53.484;10.216;2023-05-10T11:32:44;13.50;;;11.00;;
13571;SDS011;6857;53.484;10.216;2023-05-10T11:35:11;18.07;;;12.87;;
13571;SDS011;6857;53.484;10.216;2023-05-10T11:37:38;14.67;;;10.63;;
13571;SDS011;6857;53.484;10.216;2023-05-10T11:40:08;27.77;;;17.20;;
13571;SDS011;6857;53.484;10.216;2023-05-10T11:42:36;12.67;;;11.07;;
13571;SDS011;6857;53.484;10.216;2023-05-10T11:45:03;12.80;;;11.27;;
13571;SDS011;6857;53.484;10.216;2023-05-10T11:47:28;19.60;;;12.00;;
13571;SDS011;6857;53.484;10.216;2023-05-10T11:49:55;16.27;;;11.10;;
13571;SDS011;6857;53.484;10.216;2023-05-10T11:52:21;14.00;;;11.07;;
13571;SDS011;6857;53.484;10.216;2023-05-10T11:54:53;13.60;;;11.13;;
13571;SDS011;6857;53.484;10.216;2023-05-10T11:57:20;11.93;;;10.73;;
13571;SDS011;6857;53.484;10.216;2023-05-10T11:59:46;19.53;;;13.33;;
13571;SDS011;6857;53.484;10.216;2023-05-10T12:02:13;16.53;;;12.40;;
13571;SDS011;6857;53.484;10.216;2023-05-10T12:04:39;24.37;;;14.93;;
13571;SDS011;6857;53.484;10.216;2023-05-10T12:07:05;27.13;;;17.33;;
13571;SDS011;6857;53.484;10.216;2023-05-10T12:09:31;23.27;;;16.60;;
13571;SDS011;6857;53.484;10.216;2023-05-10T12:11:57;22.63;;;14.93;;
13571;SDS011;6857;53.484;10.216;2023-05-10T12:14:23;18.20;;;14.00;;
13571;SDS011;6857;53.484;10.216;2023-05-10T12:16:49;14.63;;;12.37;;
13571;SDS011;6857;53.484;10.216;2023-05-10T12:19:18;15.77;;;13.97;;
13571;SDS011;6857;53.484;10.216;2023-05-10T12:21:47;13.93;;;12.50;;
13571;SDS011;6857;53.484;10.216;2023-05-10T12:24:13;22.43;;;13.00;;
13571;SDS011;6857;53.484;10.216;2023-05-10T12:26:43;14.97;;;12.27;;
13571;SDS011;6857;53.484;10.216;2023-05-10T12:29:16;19.23;;;13.07;;
13571;SDS011;6857;53.484;10.216;2023-05-10T12:31:52;34.47;;;18.47;;
13571;SDS011;6857;53.484;10.216;2023-05-10T12:34:31;21.60;;;14.30;;
13571;SDS011;6857;53.484;10.216;2023-05-10T12:36:57;39.03;;;17.50;;
13571;SDS011;6857;53.484;10.216;2023-05-10T12:39:24;16.13;;;13.03;;
13571;SDS011;6857;53.484;10.216;2023-05-10T12:41:50;15.93;;;11.87;;
13571;SDS011;6857;53.484;10.216;2023-05-10T12:44:16;15.83;;;12.90;;
13571;SDS011;6857;53.484;10.216;2023-05-10T12:46:43;19.47;;;14.20;;
13571;SDS011;6857;53.484;10.216;2023-05-10T12:49:09;14.53;;;11.80;;
13571;SDS011;6857;53.484;10.216;2023-05-10T12:51:35;10.93;;;9.83;;
13571;SDS011;6857;53.484;10.216;2023-05-10T12:54:02;11.37;;;9.10;;
13571;SDS011;6857;53.484;10.216;2023-05-10T12:56:28;10.73;;;9.70;;
13571;SDS011;6857;53.484;10.216;2023-05-10T12:58:54;12.57;;;8.83;;
13571;SDS011;6857;53.484;10.216;2023-05-10T13:01:20;10.70;;;8.83;;
13571;SDS011;6857;53.484;10.216;2023-05-10T13:03:46;8.47;;;7.57;;
13571;SDS011;6857;53.484;10.216;2023-05-10T13:06:12;16.83;;;10.37;;
13571;SDS011;6857;53.484;10.216;2023-05-10T13:08:39;9.57;;;8.10;;
13571;SDS011;6857;53.484;10.216;2023-05-10T13:11:05;12.37;;;9.67;;
13571;SDS011;6857;53.484;10.216;2023-05-10T13:13:31;12.57;;;9.27;;
13571;SDS011;6857;53.484;10.216;2023-05-10T13:15:57;20.60;;;11.87;;
13571;SDS011;6857;53.484;10.216;2023-05-10T13:18:23;8.90;;;8.00;;
13571;SDS011;6857;53.484;10.216;2023-05-10T13:20:49;16.60;;;11.60;;
13571;SDS011;6857;53.484;10.216;2023-05-10T13:23:15;11.57;;;9.80;;
13571;SDS011;6857;53.484;10.216;2023-05-10T13:25:41;12.03;;;9.27;;
13571;SDS011;6857;53.484;10.216;2023-05-10T13:28:07;9.50;;;8.53;;
13571;SDS011;6857;53.484;10.216;2023-05-10T13:30:33;8.23;;;7.43;;
13571;SDS011;6857;53.484;10.216;2023-05-10T13:32:59;8.57;;;7.67;;
13571;SDS011;6857;53.484;10.216;2023-05-10T13:35:25;8.50;;;7.60;;
13571;SDS011;6857;53.484;10.216;2023-05-10T13:37:51;11.13;;;8.83;;
13571;SDS011;6857;53.484;10.216;2023-05-10T13:40:18;8.70;;;7.90;;
13571;SDS011;6857;53.484;10.216;2023-05-10T13:42:44;8.77;;;7.80;;
13571;SDS011;6857;53.484;10.216;2023-05-10T13:45:10;10.87;;;8.70;;
13571;SDS011;6857;53.484;10.216;2023-05-10T13:47:37;9.93;;;8.20;;
13571;SDS011;6857;53.484;10.216;2023-05-10T13:50:03;8.70;;;7.57;;
13571;SDS011;6857;53.484;10.216;2023-05-10T13:52:29;11.33;;;7.80;;
13571;SDS011;6857;53.484;10.216;2023-05-10T13:54:55;8.93;;;7.90;;
13571;SDS011;6857;53.484;10.216;2023-05-10T13:57:22;8.67;;;7.43;;
13571;SDS011;6857;53.484;10.216;2023-05-10T13:59:48;9.93;;;7.47;;
13571;SDS011;6857;53.484;10.216;2023-05-10T14:02:14;8.10;;;7.30;;
13571;SDS011;6857;53.484;10.216;2023-05-10T14:04:40;7.47;;;6.07;;
13571;SDS011;6857;53.484;10.216;2023-05-10T14:07:06;12.63;;;7.87;;
13571;SDS011;6857;53.484;10.216;2023-05-10T14:09:32;14.73;;;8.53;;
13571;SDS011;6857;53.484;10.216;2023-05-10T14:11:58;10.03;;;6.93;;
13571;SDS011;6857;53.484;10.216;2023-05-10T14:14:24;8.17;;;7.17;;
13571;SDS011;6857;53.484;10.216;2023-05-10T14:16:50;11.87;;;9.40;;
13571;SDS011;6857;53.484;10.216;2023-05-10T14:19:16;8.57;;;7.77;;
13571;SDS011;6857;53.484;10.216;2023-05-10T14:21:42;8.20;;;7.40;;
13571;SDS011;6857;53.484;10.216;2023-05-10T14:24:09;8.47;;;7.43;;
13571;SDS011;6857;53.484;10.216;2023-05-10T14:26:35;9.17;;;8.00;;
13571;SDS011;6857;53.484;10.216;2023-05-10T14:29:01;8.10;;;7.40;;
13571;SDS011;6857;53.484;10.216;2023-05-10T14:31:27;9.47;;;8.57;;
13571;SDS011;6857;53.484;10.216;2023-05-10T14:33:55;8.57;;;7.67;;
13571;SDS011;6857;53.484;10.216;2023-05-10T14:36:22;7.63;;;6.60;;
13571;SDS011;6857;53.484;10.216;2023-05-10T14:38:47;9.13;;;8.10;;
13571;SDS011;6857;53.484;10.216;2023-05-10T14:41:15;9.37;;;8.47;;
13571;SDS011;6857;53.484;10.216;2023-05-10T14:43:42;7.90;;;6.83;;
13571;SDS011;6857;53.484;10.216;2023-05-10T14:46:08;12.03;;;8.50;;
13571;SDS011;6857;53.484;10.216;2023-05-10T14:48:34;13.60;;;8.30;;
13571;SDS011;6857;53.484;10.216;2023-05-10T14:51:00;8.37;;;7.20;;
13571;SDS011;6857;53.484;10.216;2023-05-10T14:53:26;10.00;;;8.40;;
13571;SDS011;6857;53.484;10.216;2023-05-10T14:55:52;8.23;;;7.43;;
13571;SDS011;6857;53.484;10.216;2023-05-10T14:58:18;8.37;;;7.47;;
13571;SDS011;6857;53.484;10.216;2023-05-10T15:00:44;9.10;;;8.20;;
13571;SDS011;6857;53.484;10.216;2023-05-10T15:03:11;8.50;;;7.60;;
13571;SDS011;6857;53.484;10.216;2023-05-10T15:05:37;8.93;;;7.63;;
13571;SDS011;6857;53.484;10.216;2023-05-10T15:08:03;8.77;;;7.17;;
13571;SDS011;6857;53.484;10.216;2023-05-10T15:10:30;7.50;;;6.80;;
13571;SDS011;6857;53.484;10.216;2023-05-10T15:12:57;13.67;;;8.17;;
13571;SDS011;6857;53.484;10.216;2023-05-10T15:15:23;7.93;;;7.13;;
13571;SDS011;6857;53.484;10.216;2023-05-10T15:17:49;7.80;;;6.73;;